Time;durP1;ratioP1;P1;durP2;ratioP2;P2;SDS_P1;SDS_P2;PMS_P1;PMS_P2;Temp;Humidity;BMP_temperature;BMP_pressure;BME280_temperature;BME280_humidity;BME280_pressure;Samples;Min_cycle;Max_cycle;Signal;HPM_P1;HPM_P2
2021/05/11 00:00:04;;;;;;;7.97;3.30;;;;;;;11.92;69.44;100946.72;690634;28;1309;-48
2021/05/11 00:00:25;;;;;;;8.52;3.15;;;;;;;11.94;69.32;100944.84;690949;28;944;-48
2021/05/11 00:00:45;;;;;;;7.15;3.13;;;;;;;11.93;69.28;100945.78;690890;28;863;-49
2021/05/11 00:01:17;;;;;;;7.63;3.30;;;;;;;11.94;69.39;100950.13;691018;28;977;-46
2021/05/11 00:01:39;;;;;;;8.25;3.10;;;;;;;11.94;68.96;100951.00;690789;28;1342;-47
2021/05/11 00:01:59;;;;;;;7.45;3.25;;;;;;;11.93;68.75;100951.06;691018;28;946;-46
2021/05/11 00:02:20;;;;;;;6.90;3.10;;;;;;;11.94;68.76;100945.72;691090;28;878;-48
2021/05/11 00:02:40;;;;;;;7.32;3.30;;;;;;;11.94;68.72;100955.41;690978;28;887;-49
2021/05/11 00:03:00;;;;;;;8.90;3.13;;;;;;;11.92;68.81;100954.63;690842;28;1918;-46
2021/05/11 00:03:21;;;;;;;9.17;3.43;;;;;;;11.93;68.68;100953.69;691022;28;1025;-47
2021/05/11 00:03:44;;;;;;;8.18;3.25;;;;;;;11.95;68.52;100949.22;690842;28;1006;-49
2021/05/11 00:04:05;;;;;;;9.88;3.42;;;;;;;11.95;68.52;100951.84;691004;28;898;-49
2021/05/11 00:04:25;;;;;;;10.50;3.63;;;;;;;11.93;68.29;100946.63;691043;28;863;-48
2021/05/11 00:04:45;;;;;;;8.77;3.57;;;;;;;11.93;68.73;100946.63;690909;28;824;-46
2021/05/11 00:05:12;;;;;;;7.70;3.33;;;;;;;11.93;68.38;100943.13;690962;28;863;-48
2021/05/11 00:05:33;;;;;;;7.70;3.30;;;;;;;11.94;68.32;100955.41;690991;28;902;-46
2021/05/11 00:05:53;;;;;;;7.07;3.27;;;;;;;11.93;68.44;100948.41;690701;28;796;-48
2021/05/11 00:06:13;;;;;;;7.35;3.38;;;;;;;11.94;68.34;100948.38;690801;28;874;-47
2021/05/11 00:06:34;;;;;;;9.67;3.43;;;;;;;11.96;68.34;100953.56;690807;28;1033;-46
2021/05/11 00:06:54;;;;;;;9.38;3.53;;;;;;;11.95;68.37;100947.44;690735;28;986;-48
2021/05/11 00:07:14;;;;;;;9.40;3.70;;;;;;;11.94;68.13;100944.84;690706;28;910;-45
2021/05/11 00:07:35;;;;;;;8.97;3.47;;;;;;;11.94;68.14;100944.84;690772;28;1053;-49
2021/05/11 00:07:58;;;;;;;7.70;3.13;;;;;;;11.96;68.23;100948.28;690908;28;916;-44
2021/05/11 00:08:18;;;;;;;7.63;3.20;;;;;;;11.98;68.00;100946.44;690939;28;859;-45
2021/05/11 00:08:39;;;;;;;7.30;3.40;;;;;;;11.98;67.97;100946.44;690610;28;895;-46
2021/05/11 00:08:59;;;;;;;7.30;3.27;;;;;;;11.97;68.08;100939.41;690897;28;1535;-46
2021/05/11 00:09:20;;;;;;;8.60;3.63;;;;;;;12.00;67.93;100947.19;690855;28;1025;-49
2021/05/11 00:09:40;;;;;;;8.10;3.50;;;;;;;12.02;67.88;100945.38;691051;28;898;-50
2021/05/11 00:10:00;;;;;;;7.17;3.37;;;;;;;12.00;68.28;100939.28;690910;28;910;-46
2021/05/11 00:10:21;;;;;;;7.27;3.23;;;;;;;12.02;68.07;100943.56;690900;28;1476;-47
2021/05/11 00:10:41;;;;;;;7.28;3.30;;;;;;;12.05;68.29;100942.59;691063;28;930;-48
2021/05/11 00:11:01;;;;;;;7.40;3.30;;;;;;;12.04;68.19;100947.00;690981;28;907;-46
2021/05/11 00:11:21;;;;;;;8.18;3.53;;;;;;;12.05;68.29;100942.59;690883;28;998;-47
2021/05/11 00:11:42;;;;;;;7.80;3.10;;;;;;;12.04;68.52;100946.13;690941;28;1281;-48
2021/05/11 00:12:05;;;;;;;6.87;3.00;;;;;;;12.04;68.14;100946.13;690832;28;1196;-48
2021/05/11 00:12:26;;;;;;;7.82;3.50;;;;;;;12.03;68.11;100944.41;690851;28;871;-49
2021/05/11 00:12:46;;;;;;;7.23;3.30;;;;;;;12.03;68.03;100950.56;691038;28;1132;-50
2021/05/11 00:13:06;;;;;;;7.32;3.30;;;;;;;12.05;67.91;100948.72;690949;28;872;-48
2021/05/11 00:13:27;;;;;;;7.90;3.43;;;;;;;12.05;67.64;100948.72;690933;28;994;-47
2021/05/11 00:13:47;;;;;;;8.32;3.50;;;;;;;12.04;67.92;100949.66;691002;28;828;-50
2021/05/11 00:14:07;;;;;;;8.30;3.67;;;;;;;12.04;67.80;100946.13;690818;28;955;-48
2021/05/11 00:14:27;;;;;;;7.20;3.23;;;;;;;12.04;67.76;100946.13;691096;28;796;-48
2021/05/11 00:14:48;;;;;;;8.40;3.30;;;;;;;12.03;67.90;100945.28;690983;28;1001;-45
2021/05/11 00:15:08;;;;;;;8.93;3.43;;;;;;;12.01;68.18;100946.25;690870;28;1002;-47
2021/05/11 00:15:29;;;;;;;8.40;3.40;;;;;;;11.98;67.95;100944.66;690960;28;1030;-45
2021/05/11 00:15:52;;;;;;;9.20;3.50;;;;;;;12.00;67.80;100944.56;690937;28;859;-47
2021/05/11 00:16:12;;;;;;;9.27;3.65;;;;;;;11.99;68.00;100953.41;690891;28;859;-47
2021/05/11 00:16:33;;;;;;;8.05;3.50;;;;;;;11.98;67.91;100946.44;691104;28;922;-47
2021/05/11 00:16:54;;;;;;;8.13;3.40;;;;;;;11.98;67.83;100946.44;690948;28;962;-49
2021/05/11 00:17:14;;;;;;;7.57;3.30;;;;;;;11.99;67.97;100959.56;691051;28;851;-47
2021/05/11 00:17:34;;;;;;;7.43;3.33;;;;;;;11.98;67.82;100949.94;690995;28;1002;-46
2021/05/11 00:17:55;;;;;;;8.65;3.38;;;;;;;12.00;68.18;100952.50;690958;28;918;-46
2021/05/11 00:18:15;;;;;;;9.60;3.80;;;;;;;11.97;68.52;100955.25;690969;28;791;-47
2021/05/11 00:18:36;;;;;;;8.73;3.90;;;;;;;11.95;68.16;100951.84;690283;28;898;-46
2021/05/11 00:18:57;;;;;;;9.30;3.80;;;;;;;11.94;67.94;100955.41;688114;28;836;-46
2021/05/11 00:19:18;;;;;;;9.60;4.00;;;;;;;11.92;67.94;100958.13;688119;28;844;-46
2021/05/11 00:19:38;;;;;;;8.97;3.90;;;;;;;11.93;67.87;100956.34;687973;28;900;-47
2021/05/11 00:19:59;;;;;;;8.80;3.57;;;;;;;11.92;67.89;100958.13;688034;28;1009;-48
2021/05/11 00:20:23;;;;;;;9.00;3.63;;;;;;;11.90;68.04;100959.13;688384;28;1547;-46
2021/05/11 00:20:43;;;;;;;8.70;4.10;;;;;;;11.88;68.25;100957.41;690669;28;1492;-46
2021/05/11 00:21:04;;;;;;;7.77;4.00;;;;;;;11.88;68.32;100949.50;691097;28;939;-47
2021/05/11 00:21:24;;;;;;;7.78;3.83;;;;;;;11.91;68.32;100956.41;690960;28;990;-46
2021/05/11 00:21:44;;;;;;;6.93;3.67;;;;;;;11.92;68.45;100962.56;690783;28;1480;-49
2021/05/11 00:22:05;;;;;;;8.73;3.72;;;;;;;11.92;68.28;100952.00;690976;28;923;-46
2021/05/11 00:22:26;;;;;;;8.20;3.80;;;;;;;11.92;68.27;100958.13;690597;28;982;-47
2021/05/11 00:22:48;;;;;;;7.65;3.70;;;;;;;11.93;68.42;100953.69;690684;28;914;-49
2021/05/11 00:23:08;;;;;;;7.90;3.58;;;;;;;11.98;68.27;100951.72;690908;28;1911;-45
2021/05/11 00:23:28;;;;;;;8.03;3.50;;;;;;;12.01;67.89;100955.06;690834;28;1398;-49
2021/05/11 00:23:49;;;;;;;6.72;3.75;;;;;;;12.02;68.04;100954.13;690680;28;1586;-47
2021/05/11 00:24:12;;;;;;;7.70;3.70;;;;;;;12.02;68.10;100955.94;690949;28;902;-47
2021/05/11 00:24:32;;;;;;;8.18;3.90;;;;;;;12.05;68.00;100953.16;690884;28;954;-49
2021/05/11 00:24:53;;;;;;;8.13;3.87;;;;;;;12.06;67.98;100955.69;690982;28;915;-48
2021/05/11 00:25:19;;;;;;;8.13;3.70;;;;;;;12.05;67.81;100955.78;690974;28;870;-46
2021/05/11 00:25:39;;;;;;;8.95;3.83;;;;;;;12.08;67.87;100955.66;690982;28;953;-47
2021/05/11 00:26:00;;;;;;;8.93;3.73;;;;;;;12.06;67.62;100955.69;690701;28;1514;-47
2021/05/11 00:26:20;;;;;;;10.40;3.80;;;;;;;12.05;67.82;100956.66;690916;28;839;-47
2021/05/11 00:26:43;;;;;;;8.60;3.60;;;;;;;12.06;67.88;100949.56;690992;28;831;-46
2021/05/11 00:27:04;;;;;;;9.60;3.90;;;;;;;12.04;67.87;100951.41;690625;28;1432;-46
2021/05/11 00:27:24;;;;;;;7.35;3.83;;;;;;;12.06;67.96;100957.50;690836;28;1433;-46
2021/05/11 00:27:45;;;;;;;7.90;3.43;;;;;;;12.05;68.11;100953.16;690917;28;978;-48
2021/05/11 00:28:06;;;;;;;9.05;3.67;;;;;;;12.05;68.04;100956.66;690731;28;1037;-45
2021/05/11 00:28:28;;;;;;;7.95;3.83;;;;;;;12.05;68.26;100947.88;690674;28;839;-45
2021/05/11 00:28:49;;;;;;;7.97;3.80;;;;;;;12.02;68.15;100951.50;690961;28;851;-46
2021/05/11 00:29:09;;;;;;;7.60;3.80;;;;;;;12.04;68.31;100952.28;690664;28;1464;-46
2021/05/11 00:29:32;;;;;;;8.00;3.63;;;;;;;12.03;68.12;100950.56;691075;28;819;-47
2021/05/11 00:29:52;;;;;;;9.70;4.03;;;;;;;12.04;68.52;100952.28;690795;28;1023;-47
2021/05/11 00:30:13;;;;;;;6.93;3.80;;;;;;;12.03;68.42;100952.34;690895;28;982;-47
2021/05/11 00:30:33;;;;;;;9.30;4.03;;;;;;;12.03;68.71;100955.00;690984;28;891;-49
2021/05/11 00:30:53;;;;;;;9.10;4.13;;;;;;;12.05;68.83;100953.16;690895;28;874;-45
2021/05/11 00:31:16;;;;;;;7.13;3.90;;;;;;;12.02;68.76;100948.84;691016;28;792;-45
2021/05/11 00:31:36;;;;;;;9.52;4.10;;;;;;;12.04;68.60;100948.78;690564;28;1495;-45
2021/05/11 00:31:59;;;;;;;8.07;4.10;;;;;;;12.06;68.52;100954.84;690268;28;1291;-45
2021/05/11 00:32:20;;;;;;;8.50;3.83;;;;;;;12.07;68.30;100952.13;690942;28;1038;-48
2021/05/11 00:32:40;;;;;;;9.07;4.03;;;;;;;12.07;67.93;100951.28;690147;28;1227;-47
2021/05/11 00:33:00;;;;;;;9.27;4.10;;;;;;;12.12;67.74;100954.56;690991;28;840;-46
2021/05/11 00:33:21;;;;;;;8.37;3.93;;;;;;;12.12;67.50;100959.84;690940;28;951;-48
2021/05/11 00:33:41;;;;;;;8.80;4.00;;;;;;;12.10;67.86;100956.41;690791;28;810;-47
2021/05/11 00:34:01;;;;;;;7.70;3.80;;;;;;;12.10;68.08;100953.78;690841;28;978;-46
2021/05/11 00:34:22;;;;;;;7.88;3.70;;;;;;;12.07;68.15;100956.56;690949;28;980;-48
2021/05/11 00:34:42;;;;;;;8.87;3.57;;;;;;;12.06;67.88;100952.22;690868;28;848;-49
2021/05/11 00:35:03;;;;;;;7.77;3.80;;;;;;;12.06;67.44;100954.84;690954;28;820;-47
2021/05/11 00:35:23;;;;;;;7.72;3.60;;;;;;;12.06;67.36;100954.84;690870;28;1098;-49
2021/05/11 00:35:46;;;;;;;7.57;3.75;;;;;;;12.05;67.34;100953.16;691011;28;994;-46
2021/05/11 00:36:10;;;;;;;8.48;3.70;;;;;;;12.05;67.04;100953.16;690802;28;840;-48
2021/05/11 00:36:30;;;;;;;9.68;3.60;;;;;;;12.01;67.45;100948.91;690883;28;895;-47
2021/05/11 00:36:50;;;;;;;8.10;3.60;;;;;;;12.04;67.30;100951.41;690913;28;1061;-47
2021/05/11 00:37:10;;;;;;;9.23;3.50;;;;;;;12.04;67.26;100954.06;690908;28;800;-45
2021/05/11 00:37:31;;;;;;;8.33;3.67;;;;;;;12.02;67.52;100951.50;690907;28;850;-48
2021/05/11 00:37:51;;;;;;;9.55;3.90;;;;;;;12.04;67.43;100948.78;690880;28;826;-46
2021/05/11 00:38:11;;;;;;;8.57;3.90;;;;;;;12.02;67.10;100948.00;684853;28;1010;-46
2021/05/11 00:38:31;;;;;;;7.77;3.70;;;;;;;12.02;67.01;100948.84;685423;28;931;-50
2021/05/11 00:38:52;;;;;;;7.33;3.33;;;;;;;12.06;66.87;100953.06;690962;28;814;-46
2021/05/11 00:39:12;;;;;;;7.63;3.45;;;;;;;12.07;66.62;100952.13;690864;28;816;-45
2021/05/11 00:39:32;;;;;;;8.13;3.40;;;;;;;12.11;66.44;100952.84;690971;28;867;-46
2021/05/11 00:39:55;;;;;;;7.87;3.30;;;;;;;12.12;66.49;100954.56;690957;28;796;-47
2021/05/11 00:40:16;;;;;;;9.45;3.25;;;;;;;12.10;66.46;100951.13;690773;28;900;-47
2021/05/11 00:40:36;;;;;;;7.30;3.30;;;;;;;12.11;66.71;100955.47;690586;28;1421;-47
2021/05/11 00:40:56;;;;;;;7.57;3.27;;;;;;;12.11;66.24;100952.84;690934;28;836;-46
2021/05/11 00:41:16;;;;;;;8.60;3.50;;;;;;;12.13;66.29;100960.72;690807;28;1145;-46
2021/05/11 00:41:37;;;;;;;7.07;3.30;;;;;;;12.14;66.25;100955.34;690938;28;1363;-46
2021/05/11 00:41:57;;;;;;;6.97;3.30;;;;;;;12.10;66.61;100952.00;690949;28;874;-46
2021/05/11 00:42:20;;;;;;;8.43;3.40;;;;;;;12.11;66.67;100950.19;690776;28;947;-47
2021/05/11 00:42:43;;;;;;;7.47;3.17;;;;;;;12.10;66.63;100953.78;690475;28;946;-47
2021/05/11 00:43:06;;;;;;;7.45;3.30;;;;;;;12.13;66.41;100956.28;690463;28;1918;-46
2021/05/11 00:43:27;;;;;;;6.43;3.00;;;;;;;12.17;66.45;100954.34;690692;28;930;-47
2021/05/11 00:43:47;;;;;;;7.80;3.20;;;;;;;12.11;66.34;100948.44;690782;28;793;-48
2021/05/11 00:44:21;;;;;;;7.82;3.45;;;;;;;12.13;66.32;100951.00;690505;28;1026;-48
2021/05/11 00:44:41;;;;;;;9.05;3.47;;;;;;;12.13;66.27;100956.28;690600;28;830;-47
2021/05/11 00:45:04;;;;;;;8.63;3.33;;;;;;;12.12;66.36;100954.56;690590;28;1603;-46
2021/05/11 00:45:25;;;;;;;8.68;3.50;;;;;;;12.09;66.37;100952.94;690602;28;1037;-46
2021/05/11 00:45:48;;;;;;;7.65;3.30;;;;;;;12.08;66.60;100953.00;690670;28;942;-46
2021/05/11 00:46:13;;;;;;;7.70;3.28;;;;;;;12.11;66.48;100958.13;690637;28;820;-49
2021/05/11 00:46:35;;;;;;;8.43;3.50;;;;;;;12.10;66.27;100956.41;690709;28;897;-46
2021/05/11 00:47:04;;;;;;;7.32;3.10;;;;;;;12.08;66.56;100948.56;690767;28;907;-46
2021/05/11 00:47:24;;;;;;;7.90;3.40;;;;;;;12.06;66.37;100949.56;690825;28;942;-46
2021/05/11 00:47:44;;;;;;;9.23;3.50;;;;;;;12.04;66.39;100957.56;690848;28;1033;-47
2021/05/11 00:48:05;;;;;;;8.32;3.30;;;;;;;12.03;66.79;100944.41;690886;28;921;-47
2021/05/11 00:48:25;;;;;;;7.80;3.27;;;;;;;12.00;66.50;100947.19;690501;28;927;-47
2021/05/11 00:48:45;;;;;;;9.18;3.38;;;;;;;12.00;66.56;100952.50;690661;28;796;-46
2021/05/11 00:49:08;;;;;;;8.23;3.30;;;;;;;12.00;66.60;100955.13;691034;28;827;-47
2021/05/11 00:49:30;;;;;;;8.50;3.22;;;;;;;11.97;66.72;100950.84;690932;28;968;-47
2021/05/11 00:49:51;;;;;;;7.97;3.20;;;;;;;11.97;66.73;100955.25;690896;28;822;-47
2021/05/11 00:50:11;;;;;;;8.35;3.30;;;;;;;11.96;66.55;100959.69;690870;28;888;-47
2021/05/11 00:50:32;;;;;;;8.30;3.40;;;;;;;11.94;66.65;100951.00;690930;28;836;-48
2021/05/11 00:50:52;;;;;;;7.57;3.17;;;;;;;11.95;67.31;100952.72;690803;28;879;-48
2021/05/11 00:51:13;;;;;;;7.23;3.40;;;;;;;11.96;67.01;100964.13;691039;28;862;-48
2021/05/11 00:51:33;;;;;;;6.78;3.13;;;;;;;11.97;66.97;100955.25;690714;28;1261;-48
2021/05/11 00:51:53;;;;;;;6.97;3.00;;;;;;;11.97;66.97;100955.25;690921;28;935;-49
2021/05/11 00:52:17;;;;;;;7.63;3.27;;;;;;;11.93;67.09;100958.97;690821;28;1026;-49
2021/05/11 00:52:38;;;;;;;7.93;3.35;;;;;;;11.93;67.02;100964.25;690840;28;922;-47
2021/05/11 00:52:59;;;;;;;6.85;3.42;;;;;;;11.91;67.04;100958.22;690879;28;970;-47
2021/05/11 00:53:19;;;;;;;7.47;3.33;;;;;;;11.91;67.11;100960.84;690926;28;986;-48
2021/05/11 00:53:42;;;;;;;7.18;3.20;;;;;;;11.89;66.97;100958.25;690760;28;966;-47
2021/05/11 00:54:09;;;;;;;7.82;3.25;;;;;;;11.90;66.85;100956.47;690839;28;908;-44
2021/05/11 00:54:29;;;;;;;7.75;3.30;;;;;;;11.90;66.77;100948.56;690727;28;1050;-47
2021/05/11 00:54:50;;;;;;;7.28;3.10;;;;;;;11.90;67.25;100944.13;690970;28;835;-47
2021/05/11 00:55:13;;;;;;;8.33;3.33;;;;;;;11.90;67.58;100951.19;690836;28;836;-47
2021/05/11 00:55:34;;;;;;;7.55;3.03;;;;;;;11.92;67.50;100952.84;690533;28;1617;-47
2021/05/11 00:55:54;;;;;;;8.27;3.33;;;;;;;11.90;67.48;100944.13;690840;28;963;-47
2021/05/11 00:56:16;;;;;;;7.47;3.30;;;;;;;11.91;67.49;100945.00;690800;28;994;-45
2021/05/11 00:56:37;;;;;;;8.43;3.15;;;;;;;11.92;67.23;100941.44;690835;28;926;-47
2021/05/11 00:56:57;;;;;;;8.23;3.25;;;;;;;11.93;66.94;100946.63;690852;28;851;-46
2021/05/11 00:57:18;;;;;;;8.53;3.10;;;;;;;11.94;67.22;100944.84;690866;28;820;-47
2021/05/11 00:57:39;;;;;;;8.30;3.05;;;;;;;11.95;66.99;100944.78;690986;28;835;-46
2021/05/11 00:58:00;;;;;;;7.75;3.13;;;;;;;11.94;67.16;100939.56;690947;28;812;-44
2021/05/11 00:58:20;;;;;;;8.13;2.92;;;;;;;11.99;66.86;100946.34;690796;28;911;-46
2021/05/11 00:58:43;;;;;;;8.23;3.33;;;;;;;11.99;66.87;100938.44;690426;28;867;-47
2021/05/11 00:59:09;;;;;;;8.70;3.42;;;;;;;12.00;66.98;100944.56;690765;28;958;-45
2021/05/11 00:59:32;;;;;;;8.27;3.20;;;;;;;11.98;67.12;100943.78;690968;28;874;-46
2021/05/11 00:59:55;;;;;;;6.90;3.20;;;;;;;11.96;67.31;100943.00;690927;28;904;-46
2021/05/11 01:00:15;;;;;;;7.32;3.15;;;;;;;11.95;67.40;100942.13;690664;28;1476;-48
2021/05/11 01:00:36;;;;;;;7.88;3.17;;;;;;;11.99;67.32;100941.06;690798;28;1002;-49
2021/05/11 01:00:56;;;;;;;8.50;3.33;;;;;;;11.99;67.39;100943.72;690920;28;992;-48
2021/05/11 01:01:16;;;;;;;9.23;3.50;;;;;;;12.00;67.13;100941.91;690793;28;898;-47
2021/05/11 01:01:37;;;;;;;9.33;3.40;;;;;;;11.94;67.44;100935.16;690646;28;1488;-46
2021/05/11 01:01:59;;;;;;;8.17;3.20;;;;;;;11.96;67.24;100937.72;690881;28;859;-46
2021/05/11 01:02:25;;;;;;;6.95;3.10;;;;;;;11.96;67.18;100937.72;690762;28;941;-47
2021/05/11 01:02:45;;;;;;;6.45;3.20;;;;;;;11.97;67.36;100944.69;690435;28;990;-46
2021/05/11 01:03:08;;;;;;;7.13;3.10;;;;;;;11.96;67.39;100945.63;690767;28;1906;-46
2021/05/11 01:03:34;;;;;;;7.25;3.17;;;;;;;11.96;67.42;100943.84;690827;28;983;-46
2021/05/11 01:03:57;;;;;;;8.23;3.40;;;;;;;11.98;67.62;100941.16;690837;28;867;-48
2021/05/11 01:04:20;;;;;;;7.85;3.15;;;;;;;11.97;67.43;100934.13;690885;28;974;-46
2021/05/11 01:04:41;;;;;;;6.55;3.20;;;;;;;11.94;67.61;100937.78;690978;28;905;-46
2021/05/11 01:05:03;;;;;;;6.60;2.90;;;;;;;11.94;67.29;100945.72;690913;28;899;-46
2021/05/11 01:05:23;;;;;;;7.10;3.03;;;;;;;11.91;67.55;100935.28;690846;28;907;-46
2021/05/11 01:05:44;;;;;;;7.13;3.27;;;;;;;11.92;67.55;100936.16;690633;28;1403;-46
2021/05/11 01:06:04;;;;;;;7.82;3.53;;;;;;;11.92;67.57;100938.78;690985;28;931;-46
2021/05/11 01:06:25;;;;;;;6.67;3.43;;;;;;;11.90;67.66;100935.34;690787;28;890;-48
2021/05/11 01:06:45;;;;;;;7.67;3.60;;;;;;;11.87;67.68;100934.56;690882;28;1059;-45
2021/05/11 01:07:06;;;;;;;7.28;3.22;;;;;;;11.87;67.78;100931.94;690918;28;824;-46
2021/05/11 01:07:26;;;;;;;6.20;3.27;;;;;;;11.87;67.82;100929.28;690659;28;1543;-46
2021/05/11 01:07:47;;;;;;;6.63;3.28;;;;;;;11.87;67.74;100938.97;690870;28;804;-45
2021/05/11 01:08:08;;;;;;;8.00;3.30;;;;;;;11.86;68.06;100935.47;690917;28;843;-45
2021/05/11 01:08:29;;;;;;;7.55;3.40;;;;;;;11.85;68.32;100935.56;690318;28;900;-45
2021/05/11 01:08:49;;;;;;;8.55;3.10;;;;;;;11.84;68.57;100940.00;690852;28;973;-45
2021/05/11 01:09:09;;;;;;;7.97;3.47;;;;;;;11.83;68.60;100942.66;690862;28;867;-45
2021/05/11 01:09:36;;;;;;;9.03;3.73;;;;;;;11.84;68.39;100937.34;690716;28;833;-45
2021/05/11 01:09:57;;;;;;;6.47;3.40;;;;;;;11.84;68.39;100942.63;690823;28;936;-48
2021/05/11 01:10:18;;;;;;;8.70;3.40;;;;;;;11.84;68.50;100941.78;690830;28;898;-46
2021/05/11 01:10:38;;;;;;;8.63;3.57;;;;;;;11.83;68.45;100940.88;690842;28;923;-45
2021/05/11 01:10:58;;;;;;;7.77;3.50;;;;;;;11.81;68.22;100937.47;690638;28;1298;-46
2021/05/11 01:11:18;;;;;;;7.87;3.40;;;;;;;11.81;68.47;100945.38;690898;28;832;-45
2021/05/11 01:11:39;;;;;;;8.63;3.53;;;;;;;11.81;68.60;100939.25;690448;28;1305;-46
2021/05/11 01:11:59;;;;;;;9.07;3.57;;;;;;;11.79;68.40;100936.66;690800;28;891;-44
2021/05/11 01:12:21;;;;;;;8.87;3.37;;;;;;;11.77;68.49;100943.81;690639;28;880;-45
2021/05/11 01:12:41;;;;;;;7.90;3.22;;;;;;;11.79;68.76;100939.28;690850;28;850;-45
2021/05/11 01:13:02;;;;;;;7.20;3.17;;;;;;;11.75;68.94;100939.50;690774;28;994;-45
2021/05/11 01:13:22;;;;;;;7.32;3.40;;;;;;;11.75;68.84;100940.38;691117;28;847;-45
2021/05/11 01:13:42;;;;;;;7.90;3.60;;;;;;;11.75;68.96;100945.66;691036;28;1034;-46
2021/05/11 01:14:04;;;;;;;7.23;3.57;;;;;;;11.74;68.86;100938.66;690967;28;885;-45
2021/05/11 01:14:26;;;;;;;8.68;3.67;;;;;;;11.73;68.83;100939.56;690911;28;1842;-45
2021/05/11 01:14:47;;;;;;;8.43;3.35;;;;;;;11.73;68.98;100944.84;691283;28;863;-46
2021/05/11 01:15:08;;;;;;;8.23;3.33;;;;;;;11.71;69.16;100941.44;691243;28;835;-46
2021/05/11 01:15:30;;;;;;;6.30;3.47;;;;;;;11.72;69.36;100943.13;691121;28;1038;-45
2021/05/11 01:15:51;;;;;;;7.07;3.28;;;;;;;11.73;69.46;100944.84;690676;28;1413;-47
2021/05/11 01:16:12;;;;;;;6.77;3.50;;;;;;;11.71;69.44;100943.22;689559;28;1496;-45
2021/05/11 01:16:33;;;;;;;7.10;3.50;;;;;;;11.71;69.64;100946.72;691265;28;846;-45
2021/05/11 01:16:59;;;;;;;7.30;3.40;;;;;;;11.69;69.55;100945.06;691027;28;980;-45
2021/05/11 01:17:28;;;;;;;7.28;3.35;;;;;;;11.65;69.59;100941.69;690690;28;1760;-46
2021/05/11 01:17:58;;;;;;;8.73;3.60;;;;;;;11.64;69.73;100948.78;690859;28;921;-46
2021/05/11 01:18:27;;;;;;;7.93;3.53;;;;;;;11.69;69.62;100950.34;690812;28;869;-47
2021/05/11 01:18:48;;;;;;;8.27;3.60;;;;;;;11.67;69.61;100942.50;690883;28;948;-46
2021/05/11 01:19:16;;;;;;;9.52;3.70;;;;;;;11.69;69.44;100940.63;690871;28;887;-46
2021/05/11 01:20:04;;;;;;;8.55;3.65;;;;;;;11.74;69.13;100943.94;690667;28;1437;-49
2021/05/11 01:20:34;;;;;;;7.10;3.67;;;;;;;11.76;69.16;100946.50;690826;28;902;-47
2021/05/11 01:20:58;;;;;;;7.78;3.30;;;;;;;11.78;69.24;100948.16;690829;28;914;-49
2021/05/11 01:21:40;;;;;;;7.93;3.58;;;;;;;11.79;69.12;100947.22;690796;28;848;-50
2021/05/11 01:22:27;;;;;;;7.45;3.85;;;;;;;11.79;69.07;100949.00;690749;28;863;-46
2021/05/11 01:24:13;;;;;;;8.57;3.92;;;;;;;11.79;69.43;100946.38;690831;28;872;-48
2021/05/11 01:24:43;;;;;;;8.98;3.50;;;;;;;11.73;69.41;100941.34;690729;28;1001;-51
2021/05/11 01:25:08;;;;;;;7.28;3.58;;;;;;;11.71;69.77;100944.06;690874;28;891;-48
2021/05/11 01:25:30;;;;;;;7.68;3.47;;;;;;;11.74;69.73;100951.88;690618;28;1456;-47
2021/05/11 01:26:04;;;;;;;7.85;3.70;;;;;;;11.82;69.56;100951.50;690697;28;1463;-49
2021/05/11 01:26:29;;;;;;;7.72;3.83;;;;;;;11.79;69.66;100949.84;690717;28;864;-48
2021/05/11 01:27:57;;;;;;;6.97;3.83;;;;;;;11.74;69.89;100951.88;688071;28;833;-48
2021/05/11 01:28:34;;;;;;;6.55;3.75;;;;;;;11.71;70.11;100949.34;688348;28;1885;-46
2021/05/11 01:32:26;;;;;;;9.07;4.30;;;;;;;11.70;70.77;100937.09;688130;28;726;-48
2021/05/11 01:43:51;;;;;;;8.40;4.10;;;;;;;11.71;70.98;100936.16;688088;28;880;-46
2021/05/11 01:47:34;;;;;;;8.88;5.22;;;;;;;11.37;72.14;100927.09;683185;29;1198;-48
2021/05/11 01:48:10;;;;;;;9.95;5.15;;;;;;;11.38;72.07;100931.44;683319;29;946;-46
2021/05/11 01:50:39;;;;;;;8.60;5.32;;;;;;;11.46;72.08;100919.69;688793;28;902;-46
2021/05/11 01:51:36;;;;;;;8.40;5.28;;;;;;;11.45;71.94;100921.47;689018;28;874;-46
2021/05/11 01:54:52;;;;;;;9.23;4.97;;;;;;;11.45;72.16;100920.59;688911;28;938;-45
2021/05/11 01:55:27;;;;;;;9.82;5.10;;;;;;;11.45;71.99;100925.88;688981;28;895;-45
2021/05/11 01:55:59;;;;;;;9.57;5.35;;;;;;;11.44;72.08;100927.69;689073;28;820;-45
2021/05/11 01:58:31;;;;;;;9.27;5.07;;;;;;;11.35;72.29;100926.28;691776;28;729;-45
2021/05/11 01:59:30;;;;;;;9.32;4.70;;;;;;;11.34;72.27;100921.94;691665;28;885;-45
2021/05/11 02:10:40;;;;;;;9.10;5.07;;;;;;;11.18;72.84;100928.78;689485;28;870;-46
2021/05/11 02:17:53;;;;;;;9.88;5.25;;;;;;;11.17;72.92;100927.94;689312;28;1573;-46
2021/05/11 02:22:50;;;;;;;8.10;4.60;;;;;;;11.16;73.45;100928.03;692442;28;670;-47
2021/05/11 02:23:13;;;;;;;10.63;4.90;;;;;;;11.14;73.24;100922.78;692351;28;1883;-45
2021/05/11 02:23:33;;;;;;;11.93;4.88;;;;;;;11.12;73.55;100926.44;692441;28;1046;-47
2021/05/11 02:23:53;;;;;;;9.07;4.45;;;;;;;11.12;73.38;100923.81;692447;28;1021;-44
2021/05/11 02:24:17;;;;;;;7.23;4.43;;;;;;;11.12;73.54;100923.81;692280;28;1397;-45
2021/05/11 02:24:37;;;;;;;9.13;4.65;;;;;;;11.11;73.45;100922.94;692395;28;852;-45
2021/05/11 02:24:58;;;;;;;9.27;4.70;;;;;;;11.08;73.63;100922.19;692190;28;808;-45
2021/05/11 02:25:18;;;;;;;8.68;4.50;;;;;;;11.08;73.57;100922.19;691863;28;1350;-45
2021/05/11 02:25:39;;;;;;;8.60;4.50;;;;;;;11.08;73.49;100925.72;692673;28;847;-45
2021/05/11 02:26:03;;;;;;;8.10;4.60;;;;;;;11.10;73.61;100920.34;692659;28;834;-48
2021/05/11 02:26:26;;;;;;;9.05;4.90;;;;;;;11.13;73.54;100921.09;692885;28;914;-45
2021/05/11 02:26:46;;;;;;;9.35;4.80;;;;;;;11.10;73.89;100920.34;692338;28;899;-45
2021/05/11 02:27:07;;;;;;;8.65;4.45;;;;;;;11.10;73.78;100923.00;691956;28;969;-46
2021/05/11 02:27:27;;;;;;;8.43;4.63;;;;;;;11.11;73.41;100916.78;691974;28;890;-47
2021/05/11 02:27:51;;;;;;;10.60;4.70;;;;;;;11.10;73.53;100925.63;691618;28;891;-49
2021/05/11 02:28:11;;;;;;;9.52;4.50;;;;;;;11.05;73.67;100914.44;691752;28;923;-45
2021/05/11 02:28:34;;;;;;;9.43;4.80;;;;;;;11.05;73.70;100927.63;691177;28;867;-48
2021/05/11 02:28:55;;;;;;;9.25;4.68;;;;;;;11.07;73.70;100920.50;691469;28;895;-45
2021/05/11 02:29:15;;;;;;;7.57;4.60;;;;;;;11.08;73.49;100916.91;690561;28;1593;-45
2021/05/11 02:29:35;;;;;;;8.87;4.53;;;;;;;11.10;73.46;100915.94;691532;28;1212;-46
2021/05/11 02:29:55;;;;;;;7.72;4.05;;;;;;;11.09;73.14;100924.78;691751;28;990;-47
2021/05/11 02:30:16;;;;;;;7.37;4.27;;;;;;;11.07;73.31;100920.50;691809;28;803;-46
2021/05/11 02:30:37;;;;;;;7.85;4.65;;;;;;;11.06;73.11;100929.34;691614;28;865;-45
2021/05/11 02:30:57;;;;;;;8.73;4.93;;;;;;;11.04;73.34;100920.63;691573;28;922;-46
2021/05/11 02:31:17;;;;;;;8.10;4.80;;;;;;;11.05;73.17;100917.06;691746;28;890;-45
2021/05/11 02:31:40;;;;;;;8.60;4.70;;;;;;;11.03;73.12;100919.75;691495;28;1266;-47
2021/05/11 02:32:00;;;;;;;8.68;4.18;;;;;;;11.01;73.47;100920.75;691668;28;843;-47
2021/05/11 02:32:24;;;;;;;9.33;4.10;;;;;;;10.98;73.41;100921.75;691607;28;986;-45
2021/05/11 02:32:44;;;;;;;10.00;4.40;;;;;;;10.96;73.37;100912.19;691728;28;888;-46
2021/05/11 02:33:04;;;;;;;7.90;4.40;;;;;;;10.96;73.49;100922.72;691471;28;979;-45
2021/05/11 02:33:25;;;;;;;8.02;4.55;;;;;;;10.93;73.72;100923.72;691657;28;883;-47
2021/05/11 02:33:46;;;;;;;9.10;4.57;;;;;;;10.92;73.72;100916.72;691689;28;1171;-47
2021/05/11 02:34:06;;;;;;;8.98;4.45;;;;;;;10.89;73.82;100917.69;691650;28;961;-46
2021/05/11 02:34:27;;;;;;;10.17;4.60;;;;;;;10.88;73.90;100921.28;691742;28;975;-46
2021/05/11 02:34:47;;;;;;;9.20;4.50;;;;;;;10.87;73.88;100919.56;691767;28;853;-45
2021/05/11 02:35:09;;;;;;;10.43;4.57;;;;;;;10.86;74.32;100920.47;691499;28;867;-44
2021/05/11 02:35:30;;;;;;;9.05;4.38;;;;;;;10.84;73.82;100914.41;691543;28;1483;-45
2021/05/11 02:35:50;;;;;;;8.10;4.40;;;;;;;10.84;74.16;100919.69;691725;28;798;-45
2021/05/11 02:36:10;;;;;;;9.25;4.50;;;;;;;10.83;74.16;100923.22;691316;28;1368;-45
2021/05/11 02:36:31;;;;;;;10.33;4.87;;;;;;;10.80;74.15;100915.44;690974;28;1175;-46